Time;durP1;ratioP1;P1;durP2;ratioP2;P2;SDS_P1;SDS_P2;PMS_P1;PMS_P2;Temp;Humidity;BMP_temperature;BMP_pressure;BME280_temperature;BME280_humidity;BME280_pressure;Samples;Min_cycle;Max_cycle;Signal;HPM_P1;HPM_P2
2021/03/29 00:03:41;;;;;;;4.45;1.15;;;9.30;99.90;;;;;;10406055;28;20029;-49
2021/03/29 00:09:03;;;;;;;4.43;1.17;;;9.30;99.90;;;;;;10411279;28;20041;-49
2021/03/29 00:14:25;;;;;;;3.00;1.17;;;9.30;99.90;;;;;;10415059;28;20049;-49
2021/03/29 00:19:47;;;;;;;3.22;0.80;;;9.20;99.90;;;;;;10392823;28;20773;-49
2021/03/29 00:25:15;;;;;;;4.47;2.13;;;9.30;99.90;;;;;;10409955;28;20432;-49
2021/03/29 00:30:39;;;;;;;7.38;1.58;;;9.20;99.90;;;;;;10410549;28;20073;-49
2021/03/29 00:36:01;;;;;;;4.13;0.98;;;9.10;99.90;;;;;;10397278;28;20191;-49
2021/03/29 00:41:24;;;;;;;4.53;1.17;;;9.00;99.90;;;;;;10408031;28;20037;-49
2021/03/29 00:46:46;;;;;;;3.33;1.10;;;9.00;99.90;;;;;;10396709;28;20029;-49
2021/03/29 00:52:07;;;;;;;4.68;0.90;;;8.90;99.90;;;;;;10412568;28;20045;-49
2021/03/29 00:57:29;;;;;;;3.00;1.00;;;8.90;99.90;;;;;;10408681;28;20033;-49
2021/03/29 01:02:50;;;;;;;2.05;0.98;;;8.90;99.90;;;;;;10391786;28;20031;-49
2021/03/29 01:08:14;;;;;;;5.78;1.15;;;8.80;99.90;;;;;;10396463;28;20048;-49
2021/03/29 01:13:41;;;;;;;2.38;1.10;;;8.70;99.90;;;;;;10381015;28;20033;-49
2021/03/29 01:19:05;;;;;;;3.65;1.00;;;8.60;99.90;;;;;;10401557;28;20781;-49
2021/03/29 01:24:40;;;;;;;2.63;1.13;;;8.60;99.90;;;;;;10390171;28;20060;-49
2021/03/29 01:30:03;;;;;;;4.97;1.40;;;8.60;99.90;;;;;;10405339;28;20091;-49
2021/03/29 01:35:31;;;;;;;5.05;1.75;;;8.60;99.90;;;;;;10401772;28;20062;-49
2021/03/29 01:40:53;;;;;;;2.88;0.88;;;8.60;99.90;;;;;;10394895;28;20453;-49
2021/03/29 01:46:16;;;;;;;2.90;0.95;;;8.60;99.90;;;;;;10406926;28;20137;-49
2021/03/29 01:51:37;;;;;;;5.03;1.10;;;8.60;99.90;;;;;;10401760;28;20037;-49
2021/03/29 01:57:04;;;;;;;7.25;1.83;;;8.40;99.90;;;;;;10406826;28;20077;-49
2021/03/29 02:02:25;;;;;;;5.60;2.13;;;8.40;99.90;;;;;;10405034;28;20115;-49
2021/03/29 02:07:46;;;;;;;7.10;2.17;;;8.40;99.90;;;;;;10379396;28;21856;-49
2021/03/29 02:13:19;;;;;;;3.00;1.15;;;8.40;99.90;;;;;;10408491;28;20546;-49
2021/03/29 02:18:42;;;;;;;4.22;1.58;;;8.40;99.90;;;;;;10412599;28;20617;-49
2021/03/29 02:24:05;;;;;;;3.78;1.33;;;8.40;99.90;;;;;;10401876;28;20454;-49
2021/03/29 02:29:27;;;;;;;11.50;2.70;;;8.40;99.90;;;;;;10405172;28;20080;-49
2021/03/29 02:34:48;;;;;;;4.63;2.08;;;8.30;99.90;;;;;;10405476;28;20037;-49
2021/03/29 02:40:09;;;;;;;3.63;1.30;;;8.40;99.90;;;;;;10405878;28;20565;-49
2021/03/29 02:45:36;;;;;;;2.75;1.70;;;8.40;99.90;;;;;;10372361;28;20038;-49
2021/03/29 02:50:59;;;;;;;3.05;1.40;;;8.50;99.90;;;;;;10389155;28;20044;-49
2021/03/29 02:56:23;;;;;;;4.25;1.25;;;8.40;99.90;;;;;;10402175;28;20048;-49
2021/03/29 03:01:45;;;;;;;2.40;1.10;;;8.50;99.90;;;;;;10386365;28;20045;-49
2021/03/29 03:07:06;;;;;;;4.55;1.58;;;8.50;99.90;;;;;;10363931;28;20549;-49
2021/03/29 03:12:27;;;;;;;5.45;1.88;;;8.70;99.90;;;;;;10397344;28;20041;-49
2021/03/29 03:17:50;;;;;;;4.80;1.50;;;8.80;99.90;;;;;;10413226;28;20188;-49
2021/03/29 03:23:14;;;;;;;2.28;1.35;;;8.80;99.90;;;;;;10415390;28;20051;-49
2021/03/29 03:28:35;;;;;;;5.15;1.65;;;8.90;99.90;;;;;;10402898;28;20035;-49
2021/03/29 03:33:56;;;;;;;3.40;0.95;;;9.00;99.90;;;;;;10368690;28;20042;-49
2021/03/29 03:39:18;;;;;;;8.43;1.65;;;9.00;99.90;;;;;;10369254;28;20078;-49
2021/03/29 03:44:40;;;;;;;4.63;1.00;;;9.10;99.90;;;;;;10367007;28;20041;-49
2021/03/29 03:50:02;;;;;;;3.05;1.30;;;9.00;99.90;;;;;;10370858;28;20559;-49
2021/03/29 03:55:23;;;;;;;2.40;0.88;;;9.10;99.90;;;;;;10369507;28;20091;-49
2021/03/29 04:00:45;;;;;;;4.10;1.15;;;9.10;99.90;;;;;;10396455;28;20040;-49
2021/03/29 04:06:06;;;;;;;2.25;0.80;;;9.10;99.90;;;;;;10403682;28;20037;-49
2021/03/29 04:11:28;;;;;;;2.80;1.17;;;9.00;99.90;;;;;;10397981;28;20141;-49
2021/03/29 04:16:49;;;;;;;5.45;0.82;;;9.00;99.90;;;;;;10410691;28;20505;-49
2021/03/29 04:22:10;;;;;;;5.00;1.52;;;9.00;99.90;;;;;;10396085;28;20615;-49
2021/03/29 04:27:32;;;;;;;5.60;1.55;;;9.00;99.90;;;;;;10415166;28;20041;-49
2021/03/29 04:32:53;;;;;;;8.88;1.20;;;8.90;99.90;;;;;;10394577;28;20036;-49
2021/03/29 04:38:14;;;;;;;4.05;1.40;;;8.90;99.90;;;;;;10409810;28;20443;-49
2021/03/29 04:43:35;;;;;;;4.70;1.10;;;8.80;99.90;;;;;;10385442;28;20763;-48
2021/03/29 04:48:56;;;;;;;3.35;1.23;;;8.80;99.90;;;;;;10408181;28;20041;-49
2021/03/29 04:54:19;;;;;;;2.30;1.13;;;8.70;99.90;;;;;;10388764;28;20062;-49
2021/03/29 04:59:40;;;;;;;3.22;1.08;;;8.60;99.90;;;;;;10395692;28;20037;-49
2021/03/29 05:05:01;;;;;;;2.78;1.13;;;8.60;99.90;;;;;;10360878;28;20048;-49
2021/03/29 05:10:22;;;;;;;3.85;1.13;;;8.60;99.90;;;;;;10380798;28;20475;-49
2021/03/29 05:15:43;;;;;;;4.30;1.90;;;8.60;99.90;;;;;;10390520;28;20202;-49
2021/03/29 05:21:04;;;;;;;4.18;1.35;;;8.50;99.90;;;;;;10405379;28;20131;-49
2021/03/29 05:26:25;;;;;;;3.97;1.17;;;8.50;99.90;;;;;;10392962;28;20049;-49
2021/03/29 05:31:46;;;;;;;8.45;1.13;;;8.50;99.90;;;;;;10378570;28;20037;-49
2021/03/29 05:37:07;;;;;;;2.25;1.30;;;8.40;99.90;;;;;;10363112;28;20156;-49
2021/03/29 05:42:30;;;;;;;5.15;1.02;;;8.40;99.90;;;;;;10399498;28;20389;-49
2021/03/29 05:47:51;;;;;;;3.42;1.08;;;8.50;99.90;;;;;;10388189;28;20120;-49
2021/03/29 05:53:12;;;;;;;2.75;1.17;;;8.60;99.90;;;;;;10411264;28;20054;-49
2021/03/29 05:58:41;;;;;;;8.02;1.00;;;8.50;99.90;;;;;;10386472;28;20125;-49
2021/03/29 06:04:02;;;;;;;5.00;1.23;;;8.50;99.90;;;;;;10371076;28;20284;-49
2021/03/29 06:09:25;;;;;;;10.55;1.45;;;8.50;99.90;;;;;;10369801;28;20042;-49
2021/03/29 06:15:00;;;;;;;2.40;1.05;;;8.60;99.90;;;;;;10405111;28;20047;-49
2021/03/29 06:20:21;;;;;;;3.78;1.20;;;8.60;99.90;;;;;;10414793;28;20404;-49
2021/03/29 06:25:42;;;;;;;4.55;1.05;;;8.70;99.90;;;;;;10398525;28;20078;-49
2021/03/29 06:31:19;;;;;;;4.97;1.33;;;8.70;99.90;;;;;;10380760;28;20050;-49
2021/03/29 06:36:40;;;;;;;4.78;0.95;;;8.90;99.90;;;;;;10405622;28;20496;-49
2021/03/29 06:42:02;;;;;;;1.75;0.73;;;8.80;99.90;;;;;;10403686;28;20040;-49
2021/03/29 06:47:33;;;;;;;4.68;1.38;;;8.80;99.90;;;;;;10393045;28;20061;-49
2021/03/29 06:52:54;;;;;;;4.68;1.58;;;8.80;99.90;;;;;;10405900;28;20124;-49
2021/03/29 06:58:24;;;;;;;4.25;0.90;;;8.90;99.90;;;;;;10401226;28;20044;-49
2021/03/29 07:03:47;;;;;;;4.28;1.15;;;9.00;99.90;;;;;;10407432;28;20146;-49
2021/03/29 07:09:09;;;;;;;3.55;1.58;;;9.30;99.90;;;;;;10411265;28;20473;-49
2021/03/29 07:14:32;;;;;;;4.40;1.10;;;9.40;99.90;;;;;;10377965;28;20049;-49
2021/03/29 07:19:54;;;;;;;2.78;1.20;;;9.70;99.90;;;;;;10417579;28;20064;-49
2021/03/29 07:25:16;;;;;;;2.65;1.20;;;9.70;99.90;;;;;;10401416;28;20033;-49
2021/03/29 07:30:43;;;;;;;2.55;1.30;;;9.90;99.90;;;;;;10382945;28;20088;-49
2021/03/29 07:36:04;;;;;;;2.63;1.00;;;10.10;99.90;;;;;;10403647;28;20076;-49
2021/03/29 07:41:25;;;;;;;5.95;1.55;;;10.20;99.90;;;;;;10400734;28;20064;-49
2021/03/29 07:46:48;;;;;;;3.60;0.98;;;10.40;99.90;;;;;;10400070;28;20057;-49
2021/03/29 07:52:28;;;;;;;2.67;1.13;;;10.60;99.90;;;;;;10403355;28;20514;-49
2021/03/29 07:57:49;;;;;;;4.57;1.70;;;10.70;99.90;;;;;;10392292;28;20033;-49
2021/03/29 08:03:12;;;;;;;10.18;2.15;;;10.80;99.90;;;;;;10396097;28;20094;-49
2021/03/29 08:08:35;;;;;;;3.05;1.50;;;10.90;99.90;;;;;;10397652;28;20044;-49
2021/03/29 08:13:57;;;;;;;4.25;1.20;;;11.10;99.90;;;;;;10405533;28;20738;-49
2021/03/29 08:19:20;;;;;;;1.88;0.70;;;11.30;99.90;;;;;;10398512;28;20464;-49
2021/03/29 08:24:47;;;;;;;4.63;1.17;;;11.40;99.90;;;;;;10364835;28;20029;-49
2021/03/29 08:30:14;;;;;;;2.83;1.08;;;11.70;99.90;;;;;;10373858;28;20049;-49
2021/03/29 08:35:37;;;;;;;1.73;0.82;;;11.90;99.90;;;;;;10403081;28;20152;-49
2021/03/29 08:40:58;;;;;;;4.65;1.60;;;12.00;99.90;;;;;;10391357;28;20065;-49
2021/03/29 08:46:19;;;;;;;29.65;1.58;;;12.10;99.90;;;;;;10405440;28;20042;-49
2021/03/29 08:51:40;;;;;;;3.35;1.27;;;12.20;99.90;;;;;;10399342;28;20037;-49
2021/03/29 08:57:06;;;;;;;3.40;1.83;;;12.50;99.90;;;;;;10377341;28;20045;-49
2021/03/29 09:02:27;;;;;;;3.03;1.55;;;12.70;99.90;;;;;;10360392;28;20030;-49
2021/03/29 09:07:52;;;;;;;4.30;0.95;;;12.90;99.90;;;;;;10353228;28;20044;-49
2021/03/29 09:13:15;;;;;;;2.47;1.08;;;13.30;99.90;;;;;;10357870;28;20033;-49
2021/03/29 09:18:36;;;;;;;4.50;0.85;;;13.40;99.90;;;;;;10400031;28;20319;-49
2021/03/29 09:23:57;;;;;;;5.47;1.58;;;13.60;99.90;;;;;;10383604;28;20034;-49
2021/03/29 09:29:39;;;;;;;2.22;0.77;;;13.60;99.90;;;;;;10373416;28;20145;-49
2021/03/29 09:35:00;;;;;;;5.40;0.70;;;13.90;99.90;;;;;;10373132;28;20786;-49
2021/03/29 09:40:21;;;;;;;3.53;1.13;;;14.30;99.90;;;;;;10374008;28;20590;-49
2021/03/29 09:45:42;;;;;;;4.05;0.90;;;14.50;99.90;;;;;;10392456;28;20040;-49
2021/03/29 09:51:17;;;;;;;3.08;1.02;;;14.50;99.90;;;;;;10366804;28;20201;-50
2021/03/29 09:56:40;;;;;;;2.45;0.80;;;14.50;99.90;;;;;;10398914;28;20535;-49
2021/03/29 10:02:22;;;;;;;6.85;1.90;;;14.60;99.90;;;;;;10391278;28;20045;-49
2021/03/29 10:07:51;;;;;;;3.35;1.13;;;15.00;99.90;;;;;;10392883;28;20168;-49
2021/03/29 10:13:14;;;;;;;1.80;0.77;;;15.10;99.90;;;;;;10396353;28;20506;-49
2021/03/29 10:18:35;;;;;;;2.92;0.98;;;15.20;99.90;;;;;;10363424;28;20083;-49
2021/03/29 10:24:13;;;;;;;2.20;0.88;;;15.80;99.90;;;;;;10407737;28;20588;-49
2021/03/29 10:29:39;;;;;;;3.13;1.08;;;16.00;99.90;;;;;;10387625;28;20614;-49
2021/03/29 10:35:00;;;;;;;7.43;1.35;;;15.70;99.90;;;;;;10354302;28;20042;-49
2021/03/29 10:40:21;;;;;;;3.83;1.80;;;15.80;99.90;;;;;;10348127;28;20101;-49
2021/03/29 10:45:42;;;;;;;5.47;1.00;;;16.40;99.90;;;;;;10335248;28;20460;-49
2021/03/29 10:51:06;;;;;;;16.25;1.30;;;16.50;99.90;;;;;;10346419;28;20439;-49
2021/03/29 10:56:26;;;;;;;5.20;1.90;;;16.50;99.90;;;;;;10349982;28;20045;-49
2021/03/29 11:01:47;;;;;;;2.65;0.90;;;17.10;99.90;;;;;;10347738;28;20371;-49
2021/03/29 11:07:08;;;;;;;1.50;0.75;;;17.70;99.90;;;;;;10344187;28;20036;-49
2021/03/29 11:12:29;;;;;;;4.38;1.13;;;18.00;99.90;;;;;;10392099;28;20057;-49
2021/03/29 11:17:50;;;;;;;7.35;1.50;;;18.40;99.90;;;;;;10379496;28;20449;-49
2021/03/29 11:23:11;;;;;;;4.22;1.48;;;18.10;99.90;;;;;;10354210;28;20413;-49
2021/03/29 11:28:33;;;;;;;2.08;0.82;;;18.10;99.90;;;;;;10363112;28;20037;-49
2021/03/29 11:33:54;;;;;;;5.18;1.20;;;18.90;99.90;;;;;;10391394;28;20045;-49
2021/03/29 11:39:15;;;;;;;4.20;1.08;;;19.20;99.90;;;;;;10389971;28;20486;-49
2021/03/29 11:44:36;;;;;;;6.50;0.90;;;19.30;99.90;;;;;;10363727;28;20037;-50
2021/03/29 11:49:57;;;;;;;5.60;1.25;;;19.50;99.90;;;;;;10361387;28;20035;-49
2021/03/29 11:55:18;;;;;;;1.98;1.00;;;19.40;99.90;;;;;;10347265;28;20041;-49
2021/03/29 12:06:08;;;;;;;4.78;1.92;;;20.30;99.00;;;;;;10408560;28;20029;-50
2021/03/29 12:17:12;;;;;;;10.18;1.75;;;20.80;96.80;;;;;;10392354;28;20052;-50
2021/03/29 12:22:35;;;;;;;3.45;1.38;;;20.90;99.20;;;;;;10373465;28;20057;-50
2021/03/29 12:27:56;;;;;;;4.57;0.77;;;21.70;94.20;;;;;;10353220;28;20170;-50
2021/03/29 12:33:18;;;;;;;1.33;0.63;;;22.60;87.70;;;;;;10356124;28;20041;-50
2021/03/29 12:38:43;;;;;;;1.70;0.90;;;22.90;75.70;;;;;;10382129;28;20037;-51
2021/03/29 12:44:10;;;;;;;6.40;0.70;;;21.90;72.70;;;;;;10390209;28;21095;-50
2021/03/29 12:49:31;;;;;;;2.33;0.80;;;21.50;77.70;;;;;;10391288;28;20674;-51
2021/03/29 12:54:53;;;;;;;1.65;0.60;;;21.30;74.70;;;;;;10396937;28;20128;-51
2021/03/29 13:00:21;;;;;;;6.70;0.77;;;21.60;76.70;;;;;;10383706;28;20041;-50
2021/03/29 13:06:32;;;;;;;2.30;0.60;;;22.20;67.20;;;;;;10377667;28;20075;-50
2021/03/29 13:16:44;;;;;;;4.28;1.45;;;23.10;62.60;;;;;;10375406;28;20041;-50
2021/03/29 13:22:06;;;;;;;4.20;1.30;;;22.10;69.80;;;;;;10388585;28;20160;-50
2021/03/29 13:27:27;;;;;;;3.60;1.33;;;22.70;66.30;;;;;;10386765;28;20178;-50
2021/03/29 13:32:52;;;;;;;3.72;1.70;;;22.90;65.80;;;;;;10397619;28;20104;-50
2021/03/29 13:38:13;;;;;;;2.20;1.02;;;22.50;66.00;;;;;;10395781;28;20425;-50
2021/03/29 13:43:38;;;;;;;3.72;0.70;;;22.30;66.00;;;;;;10365318;28;20133;-50
2021/03/29 13:49:00;;;;;;;1.63;0.60;;;23.20;63.60;;;;;;10385354;28;20358;-50
2021/03/29 13:54:22;;;;;;;2.17;1.05;;;23.80;60.70;;;;;;10377304;28;20038;-50
2021/03/29 13:59:43;;;;;;;3.03;0.98;;;23.50;59.60;;;;;;10391794;28;20095;-50
2021/03/29 14:05:04;;;;;;;3.33;1.17;;;23.50;57.30;;;;;;10390570;28;20219;-50
2021/03/29 14:10:26;;;;;;;2.42;1.10;;;23.40;58.00;;;;;;10416547;28;20587;-50
2021/03/29 14:15:49;;;;;;;4.95;0.73;;;22.70;58.20;;;;;;10426444;28;20029;-50
2021/03/29 14:21:16;;;;;;;1.70;0.75;;;22.30;60.60;;;;;;10424080;28;20379;-51
2021/03/29 14:26:37;;;;;;;2.80;0.93;;;22.50;60.60;;;;;;10427329;28;20056;-49
2021/03/29 14:31:58;;;;;;;7.00;1.40;;;22.50;56.00;;;;;;10399170;28;20045;-49
2021/03/29 14:42:53;;;;;;;4.93;1.50;;;21.30;58.90;;;;;;10366582;28;20424;-49
2021/03/29 14:48:14;;;;;;;4.90;1.75;;;20.80;61.30;;;;;;10396222;28;20076;-49
2021/03/29 14:53:35;;;;;;;2.78;1.13;;;20.50;58.00;;;;;;10377905;28;20154;-49
2021/03/29 14:58:56;;;;;;;17.05;1.65;;;19.90;58.90;;;;;;10405444;28;20061;-49
2021/03/29 15:04:22;;;;;;;3.47;1.52;;;20.00;60.40;;;;;;10403599;28;20388;-49
2021/03/29 15:09:44;;;;;;;2.25;1.15;;;20.10;60.30;;;;;;10414126;28;20067;-49
2021/03/29 15:15:05;;;;;;;4.78;0.65;;;20.10;58.40;;;;;;10416870;28;20124;-49
2021/03/29 15:20:26;;;;;;;2.17;1.02;;;19.90;59.60;;;;;;10409214;28;20106;-49
2021/03/29 15:25:47;;;;;;;1.75;0.63;;;19.80;60.10;;;;;;10415388;28;20067;-49
2021/03/29 15:31:09;;;;;;;1.95;1.10;;;19.60;61.50;;;;;;10397535;28;20156;-49
2021/03/29 15:36:30;;;;;;;5.03;1.20;;;19.50;59.20;;;;;;10412576;28;20447;-49
2021/03/29 15:41:51;;;;;;;2.00;1.10;;;19.10;59.90;;;;;;10391138;28;20042;-49
2021/03/29 15:47:12;;;;;;;2.28;0.85;;;19.10;62.00;;;;;;10388599;28;20447;-49
2021/03/29 15:52:33;;;;;;;2.17;0.50;;;19.30;57.80;;;;;;10408503;28;20068;-49
2021/03/29 15:57:58;;;;;;;2.72;1.08;;;19.10;59.10;;;;;;10393674;28;20033;-51
2021/03/29 16:03:25;;;;;;;1.73;0.60;;;18.90;59.80;;;;;;10377838;28;20044;-49
2021/03/29 16:08:46;;;;;;;5.53;1.25;;;18.90;60.70;;;;;;10363391;28;20144;-49
2021/03/29 16:14:07;;;;;;;2.67;0.63;;;18.80;59.30;;;;;;10365278;28;20040;-49
2021/03/29 16:19:28;;;;;;;2.88;1.15;;;18.70;60.80;;;;;;10408451;28;20091;-48
2021/03/29 16:24:50;;;;;;;2.65;0.98;;;18.60;60.60;;;;;;10394703;28;20025;-48
2021/03/29 16:30:12;;;;;;;3.42;1.40;;;18.50;64.80;;;;;;10410962;28;20123;-49
2021/03/29 16:35:33;;;;;;;4.38;1.05;;;18.50;62.80;;;;;;10393832;28;20096;-49
2021/03/29 16:40:54;;;;;;;1.48;0.68;;;18.40;64.00;;;;;;10374616;28;20042;-49
2021/03/29 16:46:15;;;;;;;8.55;1.45;;;18.20;63.40;;;;;;10365442;28;20045;-49
2021/03/29 16:51:36;;;;;;;2.78;1.48;;;18.10;64.10;;;;;;10355247;28;20095;-49
2021/03/29 16:56:57;;;;;;;1.65;0.68;;;18.00;65.50;;;;;;10363512;28;20033;-49
2021/03/29 17:02:18;;;;;;;3.33;1.25;;;18.10;70.20;;;;;;10392070;28;20401;-49
2021/03/29 17:07:39;;;;;;;3.30;1.17;;;17.90;72.90;;;;;;10344853;28;20512;-48
2021/03/29 17:13:00;;;;;;;2.47;0.95;;;17.80;79.00;;;;;;10370550;28;20041;-49
2021/03/29 17:18:21;;;;;;;4.30;1.70;;;17.80;79.80;;;;;;10376539;28;20531;-49
2021/03/29 17:23:42;;;;;;;2.28;0.82;;;17.50;80.50;;;;;;10370897;28;20069;-49
2021/03/29 17:29:04;;;;;;;3.78;0.95;;;17.40;80.70;;;;;;10373102;28;20098;-49
2021/03/29 17:34:25;;;;;;;2.05;0.77;;;17.40;82.70;;;;;;10374739;28;20457;-49
2021/03/29 17:39:46;;;;;;;6.15;1.55;;;17.20;85.70;;;;;;10365753;28;20037;-49
2021/03/29 17:45:08;;;;;;;2.53;1.00;;;17.20;86.30;;;;;;10381314;28;20033;-49
2021/03/29 17:50:30;;;;;;;2.70;1.00;;;17.00;90.10;;;;;;10356308;28;20654;-49
2021/03/29 17:55:51;;;;;;;2.63;0.90;;;16.90;91.20;;;;;;10383851;28;20419;-49
2021/03/29 18:01:12;;;;;;;1.77;1.00;;;16.70;93.20;;;;;;10381111;28;20476;-49
2021/03/29 18:06:33;;;;;;;5.20;1.88;;;16.60;95.10;;;;;;10376921;28;20393;-49
2021/03/29 18:11:56;;;;;;;3.05;1.40;;;16.30;96.40;;;;;;10369453;28;20509;-49
2021/03/29 18:17:17;;;;;;;4.30;1.45;;;16.20;96.90;;;;;;10365497;28;20036;-49
2021/03/29 18:22:38;;;;;;;3.05;1.38;;;16.00;98.90;;;;;;10359516;28;20072;-49
2021/03/29 18:27:59;;;;;;;3.97;1.65;;;15.90;99.00;;;;;;10364965;28;20043;-49
2021/03/29 18:33:20;;;;;;;2.28;1.20;;;15.80;99.90;;;;;;10370816;28;20139;-49
2021/03/29 18:38:43;;;;;;;2.30;0.85;;;15.70;99.90;;;;;;10361968;28;20049;-49
2021/03/29 18:44:05;;;;;;;3.65;2.03;;;15.60;99.90;;;;;;10366512;28;20038;-49
2021/03/29 18:49:28;;;;;;;6.22;1.38;;;15.50;99.90;;;;;;10372439;28;20049;-49
2021/03/29 18:54:51;;;;;;;2.65;1.13;;;15.20;99.90;;;;;;10379003;28;20170;-49
2021/03/29 19:00:12;;;;;;;3.38;1.85;;;15.10;99.90;;;;;;10385218;28;20033;-49
2021/03/29 19:05:33;;;;;;;5.07;1.27;;;15.00;99.90;;;;;;10389030;28;20562;-49
2021/03/29 19:10:55;;;;;;;3.83;1.40;;;14.80;99.90;;;;;;10393104;28;20052;-49
2021/03/29 19:16:18;;;;;;;2.42;0.93;;;14.70;99.90;;;;;;10378169;28;20039;-49
2021/03/29 19:22:02;;;;;;;3.88;1.42;;;14.50;99.90;;;;;;10368216;28;20049;-49
2021/03/29 19:27:24;;;;;;;2.92;1.00;;;14.30;99.90;;;;;;10364181;28;20069;-49
2021/03/29 19:32:45;;;;;;;6.60;1.85;;;14.10;99.90;;;;;;10367572;28;20472;-48
2021/03/29 19:38:06;;;;;;;3.20;1.40;;;13.90;99.90;;;;;;10379008;28;20164;-49
2021/03/29 19:43:27;;;;;;;7.53;2.35;;;13.80;99.90;;;;;;10348935;28;20147;-49
2021/03/29 19:48:48;;;;;;;2.30;0.95;;;13.60;99.90;;;;;;10348478;28;20037;-49
2021/03/29 19:54:09;;;;;;;2.53;1.33;;;13.40;99.90;;;;;;10362618;28;20029;-49
2021/03/29 19:59:30;;;;;;;3.75;1.27;;;13.30;99.90;;;;;;10379471;28;20040;-49
2021/03/29 20:05:09;;;;;;;4.30;1.60;;;13.10;99.90;;;;;;10371794;28;20037;-48
2021/03/29 20:10:30;;;;;;;3.67;1.58;;;12.90;99.90;;;;;;10374363;28;20466;-49
2021/03/29 20:15:51;;;;;;;4.75;1.60;;;12.80;99.90;;;;;;10385243;28;20098;-49
2021/03/29 20:21:13;;;;;;;3.65;1.45;;;12.70;99.90;;;;;;10383440;28;20144;-49
2021/03/29 20:26:37;;;;;;;5.50;1.52;;;12.70;99.90;;;;;;10385303;28;20111;-49
2021/03/29 20:31:58;;;;;;;4.93;1.40;;;12.80;99.90;;;;;;10392456;28;20353;-49
2021/03/29 20:37:19;;;;;;;3.33;1.67;;;12.70;99.90;;;;;;10386326;28;20029;-48
2021/03/29 20:42:40;;;;;;;6.97;2.00;;;12.70;99.90;;;;;;10364042;28;20038;-48
2021/03/29 20:48:01;;;;;;;4.57;1.50;;;12.80;99.90;;;;;;10371936;28;20516;-48
2021/03/29 20:53:22;;;;;;;3.45;1.50;;;12.80;99.90;;;;;;10361768;28;20053;-48
2021/03/29 20:58:43;;;;;;;4.35;1.20;;;12.80;99.90;;;;;;10406725;28;20037;-49
2021/03/29 21:04:04;;;;;;;3.85;1.73;;;12.80;99.90;;;;;;10405487;28;20123;-49
2021/03/29 21:09:25;;;;;;;3.33;1.55;;;12.70;99.90;;;;;;10392398;28;20043;-48
2021/03/29 21:14:48;;;;;;;4.43;1.92;;;12.70;99.90;;;;;;10408428;28;20044;-49
2021/03/29 21:20:10;;;;;;;3.05;1.63;;;12.60;99.90;;;;;;10409235;28;20041;-48
2021/03/29 21:25:31;;;;;;;4.57;1.95;;;12.50;99.90;;;;;;10393402;28;20136;-49
2021/03/29 21:30:52;;;;;;;5.90;1.90;;;12.50;99.90;;;;;;10395742;28;20041;-49
2021/03/29 21:36:15;;;;;;;5.20;1.75;;;12.50;99.90;;;;;;10405469;28;20029;-49
2021/03/29 21:41:38;;;;;;;5.57;2.03;;;12.40;99.90;;;;;;10389062;28;20063;-49
2021/03/29 21:46:58;;;;;;;8.80;2.85;;;12.30;99.90;;;;;;10383497;28;20029;-48
2021/03/29 21:52:19;;;;;;;5.57;2.08;;;12.20;99.90;;;;;;10385322;28;20087;-48
2021/03/29 21:57:40;;;;;;;2.78;1.52;;;12.10;99.90;;;;;;10399083;28;20584;-48
2021/03/29 22:03:02;;;;;;;5.10;1.55;;;12.10;99.90;;;;;;10390382;28;20046;-48
2021/03/29 22:08:23;;;;;;;3.80;1.92;;;12.10;99.90;;;;;;10368460;28;20753;-49
2021/03/29 22:13:44;;;;;;;4.00;1.70;;;12.00;99.90;;;;;;10381922;28;20131;-48
2021/03/29 22:19:05;;;;;;;4.35;1.88;;;12.10;99.90;;;;;;10385960;28;20095;-49
2021/03/29 22:24:27;;;;;;;4.35;2.42;;;12.00;99.90;;;;;;10385245;28;20025;-49
2021/03/29 22:30:07;;;;;;;3.30;1.90;;;12.10;99.90;;;;;;10408483;28;20794;-48
2021/03/29 22:46:32;;;;;;;7.05;2.08;;;11.70;99.90;;;;;;10387503;28;20512;-48
2021/03/29 22:51:53;;;;;;;4.95;1.52;;;11.60;99.90;;;;;;10402221;28;20045;-48
2021/03/29 22:57:14;;;;;;;5.15;1.23;;;11.40;99.90;;;;;;10398979;28;22400;-48
2021/03/29 23:02:35;;;;;;;8.85;1.80;;;11.40;99.90;;;;;;10396008;28;20140;-48
2021/03/29 23:07:56;;;;;;;10.77;3.08;;;11.30;99.90;;;;;;10385173;28;20163;-48
2021/03/29 23:13:17;;;;;;;6.32;2.13;;;11.20;99.90;;;;;;10405293;28;20065;-48
2021/03/29 23:18:38;;;;;;;7.80;2.17;;;11.20;99.90;;;;;;10364502;28;20124;-48
2021/03/29 23:23:59;;;;;;;4.93;1.90;;;11.20;99.90;;;;;;10421740;28;20264;-48
2021/03/29 23:29:20;;;;;;;7.50;2.42;;;11.10;99.90;;;;;;10421511;28;20052;-48
2021/03/29 23:34:41;;;;;;;8.38;1.85;;;11.00;99.90;;;;;;10414468;28;20412;-48
2021/03/29 23:40:03;;;;;;;2.88;1.65;;;10.90;99.90;;;;;;10419628;28;20447;-48
2021/03/29 23:45:24;;;;;;;2.78;1.30;;;10.80;99.90;;;;;;10388858;28;20045;-48
2021/03/29 23:50:45;;;;;;;3.33;1.30;;;10.80;99.90;;;;;;10377348;28;20045;-48
2021/03/29 23:56:07;;;;;;;3.28;1.70;;;10.70;99.90;;;;;;10387324;28;20073;-48
